Fabian Garcia SC

2021-01-22 06:40:00

  • imperial
Date Time Air Temperature Relative Humidity Dewpoint Windchill Heat Index Wind Speed Wind Dir. Rain Solar Radiation Soil Temperature
2m 2m 3m 3m 10cm
US/Mountain F % F F F MPH deg in MJ/m^2 F
max avg avg
2021-01-21 06:50:00 41.6 94.8 40.2 41.6 41.6 1.3 1.3 0.1 339.0 345.8 0.00 0.0000404 43.1
2021-01-21 06:55:00 41.7 94.3 40.2 41.7 41.7 0.0 1.5 0.2 335.1 13.4 0.00 0.0000768 43.1
2021-01-21 07:00:00 41.8 94.2 40.3 41.8 41.8 0.0 0.0 0.0 266.8 0.0 0.00 0.0002305 43.1
2021-01-21 07:05:00 41.8 94.2 40.3 41.8 41.8 0.0 0.0 0.0 261.8 0.0 0.00 0.0004388 43.1
2021-01-21 07:10:00 42.0 95.0 40.7 42.0 42.0 0.0 0.0 0.0 176.4 0.0 0.00 0.0007745 43.1
2021-01-21 07:15:00 41.9 95.2 40.7 41.9 41.9 0.0 0.0 0.0 156.2 0.0 0.00 0.0015409 43.1
2021-01-21 07:20:00 41.8 95.5 40.6 41.8 41.8 0.0 0.0 0.0 185.7 0.0 0.00 0.0044590 43.1
2021-01-21 07:25:00 41.7 95.7 40.5 41.7 41.7 0.0 0.0 0.0 221.9 0.0 0.00 0.0044651 43.1
2021-01-21 07:30:00 41.7 96.4 40.7 41.7 41.7 0.8 0.8 0.0 144.5 144.5 0.00 0.0053912 43.1
2021-01-21 07:35:00 41.5 96.3 40.5 41.5 41.5 0.0 2.8 1.4 171.1 151.7 0.00 0.0082788 43.1
2021-01-21 07:40:00 41.6 96.0 40.5 41.6 41.6 0.0 0.8 0.0 289.3 281.2 0.00 0.0102038 43.1
2021-01-21 07:45:00 41.6 96.3 40.6 41.6 41.6 0.0 0.0 0.0 287.8 0.0 0.00 0.0151377 43.1
2021-01-21 07:50:00 42.1 96.1 41.1 42.1 42.1 0.0 0.0 0.0 176.1 0.0 0.00 0.0205531 43.1
2021-01-21 07:55:00 42.3 95.3 41.0 42.3 42.3 0.0 0.0 0.0 188.4 0.0 0.00 0.0252270 43.1
2021-01-21 08:00:00 42.5 95.4 41.3 42.5 42.5 0.0 0.8 0.0 209.4 203.4 0.00 0.0185357 43.1
2021-01-21 08:05:00 42.8 95.0 41.5 42.8 42.8 0.0 0.0 0.0 244.4 0.0 0.00 0.0144006 43.1
2021-01-21 08:10:00 42.9 94.9 41.5 42.9 42.9 2.6 3.3 0.9 251.3 239.7 0.00 0.0121156 43.1
2021-01-21 08:15:00 42.7 94.2 41.2 42.7 42.7 1.9 2.6 2.0 220.9 229.6 0.00 0.0127425 43.1
2021-01-21 08:20:00 43.1 94.3 41.6 43.1 43.1 2.8 3.0 1.2 268.2 254.5 0.00 0.0155980 43.1
2021-01-21 08:25:00 43.1 94.1 41.6 43.1 43.1 1.9 2.6 2.2 230.6 258.0 0.00 0.0180570 43.1
2021-01-21 08:30:00 43.3 93.6 41.5 43.3 43.3 1.2 2.4 1.9 232.4 213.7 0.00 0.0160972 43.1
2021-01-21 08:35:00 43.6 93.5 41.9 43.6 43.6 0.0 2.6 1.0 194.4 252.3 0.00 0.0169501 43.1
2021-01-21 08:40:00 43.6 91.3 41.3 43.6 43.6 1.7 2.4 1.0 225.1 217.0 0.00 0.0179706 43.1
2021-01-21 08:45:00 43.6 91.4 41.3 43.6 43.6 0.0 2.2 1.3 208.4 212.8 0.00 0.0163627 43.2
2021-01-21 08:50:00 44.0 91.8 41.8 44.0 44.0 0.0 0.0 0.0 169.5 0.0 0.00 0.0208597 43.2
2021-01-21 08:55:00 43.8 92.1 41.6 43.8 43.8 3.0 3.5 2.4 140.5 163.4 0.00 0.0234013 43.2
2021-01-21 09:00:00 43.8 92.7 41.8 43.8 43.8 0.0 2.4 0.2 228.1 169.4 0.00 0.0275545 43.2
2021-01-21 09:05:00 43.9 91.6 41.6 43.9 43.9 0.0 0.0 0.0 195.9 0.0 0.00 0.0338718 43.2
2021-01-21 09:10:00 44.0 91.9 41.8 44.0 44.0 0.0 0.0 0.0 153.1 0.0 0.00 0.0319894 43.2
2021-01-21 09:15:00 44.5 92.0 42.4 44.5 44.5 0.0 0.0 0.0 231.3 0.0 0.00 0.0400614 43.2
2021-01-21 09:20:00 44.4 90.7 41.9 44.4 44.4 0.0 0.0 0.0 236.9 0.0 0.00 0.0409871 43.3
2021-01-21 09:25:00 44.6 91.2 42.2 44.6 44.6 2.6 2.8 1.3 214.5 214.7 0.00 0.0399747 43.3
2021-01-21 09:30:00 44.6 92.7 42.6 44.6 44.6 2.4 3.0 2.0 167.2 200.0 0.00 0.0354123 43.3
2021-01-21 09:35:00 44.8 92.0 42.7 44.8 44.8 0.0 3.1 0.6 212.8 178.9 0.00 0.0303080 43.3
2021-01-21 09:40:00 45.0 91.6 42.7 45.0 45.0 0.0 2.4 0.7 245.1 221.9 0.00 0.0447027 43.3
2021-01-21 09:45:00 45.3 89.9 42.5 45.3 45.3 2.4 2.4 1.2 200.2 239.8 0.00 0.0562815 43.4
2021-01-21 09:50:00 45.5 90.0 42.7 45.5 45.5 2.2 2.4 1.0 273.2 247.2 0.00 0.0497929 43.4
2021-01-21 09:55:00 45.2 90.2 42.5 44.1 45.2 3.1 4.4 3.3 256.3 263.0 0.00 0.0375973 43.4
2021-01-21 10:00:00 45.6 89.3 42.6 45.6 45.6 2.1 3.7 2.6 148.4 194.8 0.00 0.0416601 43.5
2021-01-21 10:05:00 45.6 88.8 42.5 45.6 45.6 1.5 2.8 1.9 129.1 150.9 0.00 0.0469839 43.5
2021-01-21 10:10:00 46.0 88.1 42.7 44.1 46.0 4.2 4.4 3.2 185.5 164.3 0.00 0.0488520 43.5
2021-01-21 10:15:00 45.9 88.5 42.7 43.3 45.9 5.1 5.3 3.9 208.5 186.9 0.00 0.0437653 43.6
2021-01-21 10:20:00 46.0 89.7 43.2 44.4 46.0 3.8 4.7 3.6 147.0 174.9 0.00 0.0390400 43.6
2021-01-21 10:25:00 46.2 88.9 43.1 46.2 46.2 2.4 4.2 2.8 189.0 158.4 0.00 0.0443291 43.7
2021-01-21 10:30:00 46.3 88.9 43.2 44.7 46.3 3.8 4.6 2.9 202.2 175.3 0.00 0.0494587 43.7
2021-01-21 10:35:00 46.1 89.4 43.2 45.1 46.1 3.1 5.5 3.8 205.7 187.4 0.00 0.0417244 43.7
2021-01-21 10:40:00 46.4 90.3 43.7 46.4 46.4 2.1 4.4 3.1 136.4 160.9 0.00 0.0330281 43.8
2021-01-21 10:45:00 46.3 89.3 43.4 46.3 46.3 2.1 4.6 2.9 131.5 133.3 0.00 0.0417698 43.8
2021-01-21 10:50:00 46.8 90.9 44.2 44.9 46.8 4.2 5.1 2.6 146.3 139.3 0.00 0.0643414 43.8
2021-01-21 10:55:00 46.9 91.2 44.5 46.9 46.9 2.8 6.0 3.7 137.6 136.1 0.00 0.0787162 43.9
2021-01-21 11:00:00 47.2 91.3 44.8 47.2 47.2 2.1 6.3 4.0 141.7 135.2 0.00 0.0951340 43.9
2021-01-21 11:05:00 47.7 88.6 44.5 46.6 47.7 3.5 6.0 2.9 168.7 170.5 0.00 0.0971861 43.9
2021-01-21 11:10:00 48.4 86.4 44.5 48.4 48.4 3.0 4.7 2.3 291.3 173.4 0.00 0.1256549 44.0
2021-01-21 11:15:00 48.2 87.2 44.6 46.4 48.2 4.6 5.5 2.7 269.7 233.0 0.00 0.0838629 44.0
2021-01-21 11:20:00 47.6 89.2 44.6 47.6 47.6 2.6 6.7 4.9 265.3 256.9 0.00 0.0630335 44.1
2021-01-21 11:25:00 47.9 86.9 44.2 45.8 47.9 4.7 6.3 4.2 266.4 263.2 0.00 0.0512050 44.1
2021-01-21 11:30:00 48.2 86.8 44.4 45.4 48.2 6.2 6.3 4.7 311.1 261.7 0.00 0.0395413 44.2
2021-01-21 11:35:00 48.1 86.2 44.2 48.1 48.1 2.4 4.9 2.9 259.5 272.3 0.00 0.0461358 44.2
2021-01-21 11:40:00 48.7 81.4 43.3 46.2 48.7 5.8 5.8 4.1 218.9 232.0 0.00 0.0543619 44.3
2021-01-21 11:45:00 49.0 80.4 43.2 46.8 49.0 5.3 7.4 4.6 210.8 220.7 0.00 0.0535678 44.3
2021-01-21 11:50:00 49.1 81.7 43.7 46.7 49.1 5.6 7.2 4.7 223.5 238.7 0.00 0.0473751 44.4
2021-01-21 11:55:00 49.3 82.0 44.0 48.0 49.3 4.0 7.1 4.6 224.9 221.2 0.00 0.0464630 44.4
2021-01-21 12:00:00 49.4 82.7 44.4 47.6 49.4 4.9 7.6 5.9 254.6 228.9 0.00 0.0566350 44.5
2021-01-21 12:05:00 49.4 81.2 43.9 49.4 49.4 2.1 6.7 4.4 164.5 221.2 0.00 0.0573129 44.5
2021-01-21 12:10:00 49.9 83.5 45.1 49.9 49.9 2.4 4.6 3.0 221.7 190.3 0.00 0.0660996 44.6
2021-01-21 12:15:00 49.5 83.1 44.6 48.8 49.5 3.3 4.9 3.4 230.3 189.0 0.00 0.0598598 44.6
2021-01-21 12:20:00 49.5 82.7 44.5 49.5 49.5 2.6 5.3 3.7 210.5 223.5 0.00 0.0642360 44.7
2021-01-21 12:25:00 50.2 80.2 44.4 50.2 50.2 2.4 2.4 1.4 226.1 201.4 0.00 0.0833475 44.7
2021-01-21 12:30:00 50.2 82.6 45.1 50.2 50.2 2.6 4.0 2.3 135.4 156.6 0.00 0.0777419 44.7
2021-01-21 12:35:00 50.5 81.1 44.9 50.5 50.5 1.9 3.5 1.7 220.4 177.9 0.00 0.0704707 44.8
2021-01-21 12:40:00 50.5 80.1 44.6 50.5 50.5 1.9 3.0 1.9 85.9 141.7 0.00 0.0638264 44.8
2021-01-21 12:45:00 50.2 79.7 44.2 50.2 50.2 5.1 5.3 3.1 190.6 168.2 0.00 0.0613670 44.9
2021-01-21 12:50:00 50.2 81.1 44.7 50.2 50.2 4.0 6.0 4.2 233.9 205.8 0.00 0.0466288 44.9
2021-01-21 12:55:00 50.6 79.9 44.7 50.6 50.6 5.1 5.1 3.4 247.2 224.0 0.00 0.0817636 45.0
2021-01-21 13:00:00 50.4 81.8 45.1 50.4 50.4 2.1 6.2 3.6 214.5 209.9 0.00 0.0535195 45.0
2021-01-21 13:05:00 50.2 80.6 44.5 50.2 50.2 3.8 5.5 3.9 186.4 196.2 0.00 0.0497876 45.1
2021-01-21 13:10:00 50.5 83.1 45.5 50.5 50.5 2.1 5.5 3.3 143.4 150.9 0.00 0.0460867 45.1
2021-01-21 13:15:00 50.6 82.7 45.6 50.6 50.6 2.2 4.2 2.6 121.7 131.1 0.00 0.0434381 45.2
2021-01-21 13:20:00 50.8 82.1 45.5 50.8 50.8 2.6 4.0 2.2 138.4 134.1 0.00 0.0335480 45.2
2021-01-21 13:25:00 50.8 82.9 45.8 50.8 50.8 2.4 4.2 2.5 141.0 124.1 0.00 0.0512316 45.3
2021-01-21 13:30:00 51.1 82.0 45.8 51.1 51.1 2.8 4.2 2.5 130.2 118.8 0.00 0.0623429 45.3
2021-01-21 13:35:00 51.1 79.9 45.1 51.1 51.1 3.0 4.6 2.6 89.0 90.0 0.00 0.0702960 45.4
2021-01-21 13:40:00 50.7 82.4 45.6 50.7 50.7 4.2 5.5 3.4 53.8 107.0 0.00 0.0642581 45.4
2021-01-21 13:45:00 50.5 84.5 46.0 50.5 50.5 4.9 6.7 5.0 81.2 65.2 0.00 0.0700184 45.4
2021-01-21 13:50:00 50.7 82.7 45.6 50.7 50.7 1.0 6.5 3.3 317.6 16.5 0.00 0.0369757 45.5
2021-01-21 13:55:00 51.0 82.4 45.8 51.0 51.0 0.0 1.9 0.6 137.8 327.8 0.00 0.0196693 45.5
2021-01-21 14:00:00 51.0 80.8 45.3 51.0 51.0 4.6 4.6 2.1 202.6 189.1 0.00 0.0341464 45.6
2021-01-21 14:05:00 51.0 80.5 45.2 51.0 51.0 1.2 4.4 2.4 141.4 161.1 0.00 0.0377202 45.6
2021-01-21 14:10:00 51.0 81.1 45.4 51.0 51.0 1.9 3.0 1.2 143.2 134.1 0.00 0.0328066 45.7
2021-01-21 14:15:00 51.1 81.0 45.5 51.1 51.1 4.0 5.1 3.4 133.6 168.6 0.00 0.0349934 45.7
2021-01-21 14:20:00 51.0 81.3 45.5 51.0 51.0 3.5 4.4 3.0 150.7 136.4 0.00 0.0414130 45.8
2021-01-21 14:25:00 51.4 81.2 45.8 51.4 51.4 4.6 5.8 3.4 200.0 213.1 0.00 0.0380663 45.8
2021-01-21 14:30:00 51.1 81.9 45.8 51.1 51.1 3.3 4.6 3.3 123.2 143.7 0.00 0.0405405 45.9
2021-01-21 14:35:00 51.5 82.7 46.5 51.5 51.5 2.2 3.7 1.9 123.9 131.2 0.00 0.0547071 45.9
2021-01-21 14:40:00 51.6 82.0 46.3 51.6 51.6 3.1 4.6 3.1 184.8 162.7 0.00 0.0658799 45.9
2021-01-21 14:45:00 52.2 82.2 46.9 52.2 52.2 4.2 5.3 3.2 130.4 152.3 0.00 0.1021519 46.0
2021-01-21 14:50:00 53.0 79.8 47.0 53.0 53.0 4.9 4.9 3.0 101.6 122.2 0.00 0.1549986 46.0
2021-01-21 14:55:00 53.0 79.2 46.7 53.0 53.0 5.5 8.1 5.6 101.0 113.3 0.00 0.1457233 46.1
2021-01-21 15:00:00 53.2 78.9 46.8 53.2 53.2 4.0 8.3 5.6 100.6 116.1 0.00 0.1443885 46.1
2021-01-21 15:05:00 53.6 76.7 46.4 53.6 53.6 5.8 6.2 4.4 100.2 115.1 0.00 0.0896732 46.1
2021-01-21 15:10:00 54.1 77.3 47.1 54.1 54.1 4.0 9.7 5.4 151.4 127.0 0.00 0.1325980 46.2
2021-01-21 15:15:00 53.1 76.8 46.0 53.1 53.1 4.6 6.7 4.2 121.8 138.1 0.00 0.0242473 46.2
2021-01-21 15:20:00 53.1 76.4 45.8 53.1 53.1 2.8 5.8 3.5 162.7 147.2 0.00 0.0479663 46.3
2021-01-21 15:25:00 53.1 78.0 46.4 53.1 53.1 2.1 7.2 3.5 186.7 164.2 0.00 0.0396701 46.4
2021-01-21 15:30:00 53.4 75.8 45.9 53.4 53.4 2.4 5.6 2.7 112.5 126.8 0.00 0.0744240 46.4
2021-01-21 15:35:00 53.8 74.2 45.8 53.8 53.8 5.8 5.8 2.6 183.1 153.7 0.00 0.0653484 46.5
2021-01-21 15:40:00 53.1 76.7 45.9 53.1 53.1 3.7 5.6 4.1 212.9 200.9 0.00 0.0325486 46.6
2021-01-21 15:45:00 53.0 76.6 45.8 53.0 53.0 3.7 4.4 2.9 216.7 215.9 0.00 0.0430251 46.6
2021-01-21 15:50:00 53.2 78.8 46.8 53.2 53.2 2.8 4.6 3.4 214.3 208.4 0.00 0.0566006 46.7
2021-01-21 15:55:00 53.3 78.8 46.8 53.3 53.3 4.7 5.6 3.7 225.5 222.2 0.00 0.0434948 46.7
2021-01-21 16:00:00 53.0 79.0 46.6 53.0 53.0 3.0 4.9 3.4 165.8 199.4 0.00 0.0370230 46.8
2021-01-21 16:05:00 53.2 79.1 46.9 53.2 53.2 1.9 5.3 3.2 176.8 160.1 0.00 0.0380313 46.8
2021-01-21 16:10:00 53.1 78.2 46.5 53.1 53.1 3.7 4.6 3.4 186.3 184.2 0.00 0.0414059 46.9
2021-01-21 16:15:00 53.1 79.1 46.8 53.1 53.1 2.6 3.8 2.5 172.2 177.9 0.00 0.0355334 46.9
2021-01-21 16:20:00 53.2 78.9 46.8 53.2 53.2 3.0 4.0 2.6 182.0 150.7 0.00 0.0328962 46.9
2021-01-21 16:25:00 53.5 79.6 47.3 53.5 53.5 1.7 3.1 2.1 126.7 166.4 0.00 0.0291331 47.0
2021-01-21 16:30:00 53.5 79.5 47.3 53.5 53.5 1.7 4.6 1.6 128.0 136.0 0.00 0.0315222 47.0
2021-01-21 16:35:00 53.7 78.1 47.0 53.7 53.7 2.1 4.0 2.5 146.4 135.0 0.00 0.0575366 47.0
2021-01-21 16:40:00 53.5 79.7 47.3 53.5 53.5 3.3 4.9 3.1 143.8 143.6 0.00 0.0255849 47.0
2021-01-21 16:45:00 52.8 81.2 47.2 52.8 52.8 3.1 4.7 2.8 152.3 151.1 0.00 0.0091751 47.0
2021-01-21 16:50:00 52.5 82.1 47.2 52.5 52.5 4.6 4.6 2.3 149.7 168.4 0.00 0.0088880 47.1
2021-01-21 16:55:00 52.4 83.1 47.4 52.4 52.4 2.8 3.7 2.0 98.1 135.6 0.00 0.0092821 47.1
2021-01-21 17:00:00 52.1 83.5 47.3 52.1 52.1 2.4 3.8 2.0 131.0 132.1 0.00 0.0071195 47.1
2021-01-21 17:05:00 52.1 82.9 47.0 52.1 52.1 2.1 3.8 2.1 157.3 143.1 0.00 0.0134181 47.1
2021-01-21 17:10:00 52.3 82.0 47.0 52.3 52.3 0.8 1.9 0.7 113.5 133.2 0.00 0.0128380 47.1
2021-01-21 17:15:00 52.3 82.4 47.1 52.3 52.3 2.6 3.1 1.5 115.4 117.8 0.00 0.0062160 47.1
2021-01-21 17:20:00 52.2 83.5 47.3 52.2 52.2 2.2 3.5 1.9 162.2 134.6 0.00 0.0040861 47.1
2021-01-21 17:25:00 51.8 84.4 47.3 51.8 51.8 0.0 1.7 0.3 168.2 145.7 0.00 0.0023442 47.1
2021-01-21 17:30:00 51.2 85.5 47.0 51.2 51.2 2.2 2.2 1.1 150.0 139.1 0.00 0.0014207 47.1
2021-01-21 17:35:00 51.1 86.3 47.1 51.1 51.1 1.7 2.2 1.6 164.1 142.6 0.00 0.0009236 47.1
2021-01-21 17:40:00 50.7 86.9 47.0 50.7 50.7 1.0 3.1 1.2 170.9 164.7 0.00 0.0005861 47.1
2021-01-21 17:45:00 50.3 87.3 46.7 50.3 50.3 0.0 1.2 0.2 193.4 156.1 0.00 0.0003335 47.0
2021-01-21 17:50:00 50.1 89.1 47.0 50.1 50.1 2.1 2.1 0.7 230.5 244.9 0.00 0.0001475 47.0
2021-01-21 17:55:00 49.8 90.4 47.1 49.8 49.8 2.2 2.6 2.2 207.0 211.4 0.00 0.0000606 47.0
2021-01-21 18:00:00 49.3 90.8 46.8 49.3 49.3 1.3 2.1 1.2 198.4 202.5 0.00 0.0000606 47.0
2021-01-21 18:05:00 49.3 91.3 46.8 49.3 49.3 0.0 1.7 0.9 262.4 201.8 0.00 0.0000505 47.0
2021-01-21 18:10:00 49.4 88.5 46.1 49.4 49.4 0.0 0.8 0.0 223.0 277.2 0.00 0.0000162 46.9
2021-01-21 18:15:00 48.5 92.4 46.4 48.5 48.5 0.0 1.2 0.1 207.5 211.7 0.00 0.0000081 46.9
2021-01-21 18:20:00 47.8 92.7 45.8 47.8 47.8 0.0 0.0 0.0 240.7 0.0 0.00 0.0000020 46.9
2021-01-21 18:25:00 47.5 93.8 45.8 47.5 47.5 0.0 0.0 0.0 240.7 0.0 0.00 0.0000000 46.8
2021-01-21 18:30:00 47.2 94.8 45.8 47.2 47.2 0.0 0.0 0.0 236.8 0.0 0.00 0.0000000 46.8
2021-01-21 18:35:00 47.0 95.8 45.9 47.0 47.0 0.0 0.0 0.0 205.5 0.0 0.00 0.0000000 46.7
2021-01-21 18:40:00 46.3 97.2 45.6 46.3 46.3 1.5 1.9 0.3 153.8 156.5 0.00 0.0000000 46.7
2021-01-21 18:45:00 46.2 96.8 45.3 46.2 46.2 1.5 1.5 0.2 152.5 144.8 0.00 0.0000000 46.6
2021-01-21 18:50:00 46.3 96.9 45.5 46.3 46.3 0.0 2.2 0.7 112.8 137.8 0.00 0.0000000 46.6
2021-01-21 18:55:00 46.0 97.3 45.3 46.0 46.0 1.5 1.5 0.2 145.6 148.3 0.00 0.0000000 46.5
2021-01-21 19:00:00 46.2 97.8 45.6 46.2 46.2 1.9 2.4 1.8 157.6 145.1 0.00 0.0000000 46.5
2021-01-21 19:05:00 46.0 97.0 45.2 46.0 46.0 0.0 1.3 0.1 177.6 156.9 0.00 0.0000000 46.4
2021-01-21 19:10:00 45.8 96.7 44.9 45.8 45.8 2.4 2.4 0.6 213.8 215.2 0.00 0.0000000 46.4
2021-01-21 19:15:00 45.4 98.5 45.0 45.4 45.4 1.3 2.8 1.9 161.3 196.2 0.00 0.0000000 46.3
2021-01-21 19:20:00 45.8 98.0 45.2 45.8 45.8 2.2 2.8 1.9 186.8 184.6 0.00 0.0000000 46.3
2021-01-21 19:25:00 45.5 99.2 45.3 45.5 45.5 1.9 2.6 2.0 212.2 201.4 0.00 0.0000000 46.2
2021-01-21 19:30:00 45.9 97.9 45.4 45.9 45.9 1.9 2.6 2.1 242.2 226.7 0.00 0.0000000 46.2
2021-01-21 19:35:00 45.6 97.9 45.1 45.6 45.6 0.0 2.1 0.5 101.4 229.6 0.00 0.0000000 46.1
2021-01-21 19:40:00 45.6 97.4 44.9 45.6 45.6 0.0 0.0 0.0 99.9 0.0 0.00 0.0000000 46.1
2021-01-21 19:45:00 45.2 99.7 45.1 45.2 45.2 2.4 2.6 1.6 85.6 72.3 0.00 0.0000000 46.0
2021-01-21 19:50:00 45.7 97.9 45.1 45.7 45.7 0.0 3.3 1.4 185.7 90.9 0.00 0.0000020 45.9
2021-01-21 19:55:00 44.8 98.0 44.3 44.8 44.8 2.2 2.6 1.6 181.3 195.1 0.00 0.0000000 45.9
2021-01-21 20:00:00 44.5 99.0 44.3 44.5 44.5 1.9 2.4 2.0 187.1 182.1 0.00 0.0000000 45.9
2021-01-21 20:05:00 44.8 99.3 44.7 44.8 44.8 0.8 1.9 0.8 109.6 181.6 0.00 0.0000000 45.8
2021-01-21 20:10:00 44.8 99.3 44.6 44.8 44.8 2.1 2.1 0.7 122.9 121.5 0.00 0.0000000 45.8
2021-01-21 20:15:00 44.9 98.6 44.5 44.9 44.9 0.8 1.5 0.2 191.6 148.4 0.00 0.0000000 45.7
2021-01-21 20:20:00 44.5 98.8 44.2 44.5 44.5 2.4 2.8 2.1 188.6 185.6 0.00 0.0000000 45.6
2021-01-21 20:25:00 44.5 98.9 44.2 44.5 44.5 1.5 3.0 2.2 157.4 163.3 0.00 0.0000000 45.6
2021-01-21 20:30:00 44.5 99.1 44.2 42.6 44.5 3.8 3.8 1.8 116.4 143.4 0.00 0.0000000 45.6
2021-01-21 20:35:00 44.9 99.0 44.6 44.9 44.9 2.4 3.8 2.3 136.1 153.4 0.00 0.0000020 45.5
2021-01-21 20:40:00 45.0 98.3 44.5 45.0 45.0 1.3 2.2 1.2 106.2 131.5 0.00 0.0000000 45.5
2021-01-21 20:45:00 44.6 97.8 44.0 44.6 44.6 0.0 1.9 0.9 138.9 116.9 0.00 0.0000000 45.4
2021-01-21 20:50:00 44.7 98.5 44.3 44.7 44.7 0.0 2.6 0.6 105.9 120.9 0.00 0.0000000 45.4
2021-01-21 20:55:00 44.8 97.9 44.2 44.8 44.8 1.3 2.2 0.6 207.4 112.1 0.00 0.0000000 45.3
2021-01-21 21:00:00 44.7 98.1 44.2 44.7 44.7 0.0 1.9 0.7 213.2 209.4 0.00 0.0000000 45.3
2021-01-21 21:05:00 44.8 98.3 44.4 44.8 44.8 1.9 2.6 1.0 61.8 65.7 0.00 0.0000000 45.2
2021-01-21 21:10:00 45.3 97.2 44.6 45.3 45.3 1.5 3.0 2.0 151.3 110.0 0.00 0.0000000 45.2
2021-01-21 21:15:00 45.1 95.9 44.0 45.1 45.1 1.7 2.4 0.9 153.6 132.2 0.00 0.0000000 45.1
2021-01-21 21:20:00 45.0 95.8 43.9 45.0 45.0 0.0 3.3 1.6 160.1 136.4 0.00 0.0000000 45.1
2021-01-21 21:25:00 45.0 96.3 44.0 45.0 45.0 0.8 2.4 1.3 136.8 164.0 0.00 0.0000000 45.1
2021-01-21 21:30:00 44.7 96.6 43.8 44.7 44.7 0.8 1.9 0.9 218.7 159.0 0.00 0.0000000 45.0
2021-01-21 21:35:00 44.7 97.0 43.9 44.7 44.7 2.1 2.4 1.4 179.3 176.1 0.00 0.0000000 45.0
2021-01-21 21:40:00 44.5 96.9 43.7 44.5 44.5 1.2 2.2 0.9 171.2 142.3 0.00 0.0000000 44.9
2021-01-21 21:45:00 44.4 96.7 43.5 44.4 44.4 0.0 1.2 0.1 82.1 172.3 0.00 0.0000000 44.9
2021-01-21 21:50:00 44.2 97.6 43.6 44.2 44.2 0.0 0.0 0.0 160.9 0.0 0.00 0.0000000 44.8
2021-01-21 21:55:00 43.6 96.4 42.7 43.6 43.6 1.3 3.7 1.7 202.9 199.3 0.00 0.0000040 44.8
2021-01-21 22:00:00 43.2 98.9 42.9 43.2 43.2 1.7 2.6 1.8 149.4 187.6 0.00 0.0000000 44.8
2021-01-21 22:05:00 43.5 97.8 42.9 43.5 43.5 1.7 2.6 1.8 183.8 175.8 0.00 0.0000000 44.7
2021-01-21 22:10:00 43.5 98.7 43.2 43.5 43.5 1.9 2.8 1.8 174.6 157.4 0.00 0.0000020 44.7
2021-01-21 22:15:00 43.3 98.3 42.9 43.3 43.3 0.0 1.9 0.2 74.3 204.8 0.00 0.0000000 44.6
2021-01-21 22:20:00 43.5 98.2 43.0 43.5 43.5 0.0 1.0 0.1 55.5 85.5 0.00 0.0000000 44.6
2021-01-21 22:25:00 44.0 99.9 44.0 44.0 44.0 1.7 2.1 1.2 48.9 42.1 0.00 0.0000040 44.5
2021-01-21 22:30:00 44.1 98.5 43.7 44.1 44.1 0.0 1.9 0.8 35.8 30.2 0.00 0.0000000 44.5
2021-01-21 22:35:00 43.8 97.6 43.1 43.8 43.8 2.6 2.8 1.1 292.4 250.2 0.00 0.0000000 44.5
2021-01-21 22:40:00 43.8 97.0 43.0 43.8 43.8 2.2 3.0 2.0 220.4 256.3 0.00 0.0000020 44.4
2021-01-21 22:45:00 43.1 97.6 42.5 43.1 43.1 2.2 3.3 2.4 236.2 231.1 0.00 0.0000020 44.4
2021-01-21 22:50:00 42.5 97.6 41.8 42.5 42.5 1.7 2.8 2.0 260.2 238.6 0.00 0.0000020 44.3
2021-01-21 22:55:00 42.0 98.8 41.7 42.0 42.0 2.2 3.3 2.3 325.7 313.8 0.00 0.0000040 44.3
2021-01-21 23:00:00 42.1 99.8 42.1 42.1 42.1 0.0 1.9 1.0 319.1 303.7 0.00 0.0000202 44.3
2021-01-21 23:05:00 42.5 100.0 42.5 42.5 42.5 1.9 3.0 2.1 334.4 351.1 0.00 0.0000142 44.2
2021-01-21 23:10:00 42.5 99.6 42.4 42.5 42.5 0.0 1.7 0.2 228.1 294.3 0.00 0.0000142 44.2
2021-01-21 23:15:00 41.6 98.5 41.2 41.6 41.6 2.4 3.5 2.0 278.4 237.2 0.00 0.0000142 44.1
2021-01-21 23:20:00 41.6 99.8 41.5 41.6 41.6 1.9 3.0 2.3 252.6 265.0 0.00 0.0000121 44.1
2021-01-21 23:25:00 41.4 100.0 41.5 41.4 41.4 0.0 4.6 2.3 254.2 277.6 0.00 0.0000061 44.1
2021-01-21 23:30:00 41.0 99.1 40.7 41.0 41.0 0.0 1.0 0.1 33.2 287.7 0.00 0.0000081 44.0
2021-01-21 23:35:00 40.5 99.1 40.2 40.5 40.5 0.0 1.7 0.2 267.8 13.3 0.00 0.0000303 44.0
2021-01-21 23:40:00 40.2 100.0 40.2 40.2 40.2 1.7 3.3 1.7 147.3 188.4 0.00 0.0000344 44.0
2021-01-21 23:45:00 40.3 100.0 40.4 40.3 40.3 1.5 3.5 1.9 287.7 166.1 0.00 0.0000101 43.9
2021-01-21 23:50:00 40.1 100.0 40.1 40.1 40.1 0.0 1.3 0.1 336.6 329.4 0.00 0.0000222 43.9
2021-01-21 23:55:00 39.9 99.9 39.8 39.9 39.9 0.0 1.3 0.5 183.4 177.8 0.00 0.0000283 43.8
2021-01-22 00:00:00 40.0 100.0 40.0 40.0 40.0 2.6 3.3 2.2 151.3 169.1 0.00 0.0000142 43.8
2021-01-22 00:05:00 40.5 100.0 40.5 40.5 40.5 1.9 3.7 2.3 151.1 176.5 0.00 0.0000081 43.8
2021-01-22 00:10:00 40.0 99.9 40.0 40.0 40.0 2.2 2.6 1.4 127.1 170.1 0.00 0.0000061 43.8
2021-01-22 00:15:00 39.9 99.9 39.9 39.9 39.9 1.7 3.3 2.2 167.9 184.3 0.00 0.0000061 43.7
2021-01-22 00:20:00 40.2 100.0 40.2 40.2 40.2 1.0 2.4 1.4 198.7 149.6 0.00 0.0000000 43.7
2021-01-22 00:25:00 39.9 100.0 39.9 39.9 39.9 0.0 0.0 0.0 216.8 0.0 0.00 0.0000000 43.7
2021-01-22 00:30:00 39.7 100.0 39.7 39.7 39.7 1.2 2.4 1.0 172.1 148.8 0.00 0.0000000 43.6
2021-01-22 00:35:00 39.9 100.0 39.9 39.9 39.9 1.5 1.9 1.4 174.2 167.5 0.00 0.0000000 43.6
2021-01-22 00:40:00 39.5 99.9 39.5 39.5 39.5 1.7 2.8 1.6 134.8 146.3 0.00 0.0000000 43.6
2021-01-22 00:45:00 39.6 100.0 39.6 39.6 39.6 2.4 2.4 1.4 174.7 159.2 0.00 0.0000000 43.5
2021-01-22 00:50:00 39.9 100.0 39.8 39.9 39.9 2.8 4.6 2.4 173.0 166.6 0.00 0.0000000 43.5
2021-01-22 00:55:00 40.0 100.0 40.0 40.0 40.0 2.6 4.7 2.0 185.1 134.5 0.00 0.0000000 43.4
2021-01-22 01:00:00 40.0 99.9 40.0 40.0 40.0 1.5 4.6 2.3 100.1 133.4 0.00 0.0000000 43.4
2021-01-22 01:05:00 40.1 100.0 40.1 40.1 40.1 0.0 3.7 1.9 112.5 139.2 0.00 0.0000020 43.4
2021-01-22 01:10:00 40.3 100.0 40.3 40.3 40.3 3.0 4.9 2.7 96.3 146.3 0.00 0.0000040 43.4
2021-01-22 01:15:00 40.8 100.0 40.8 40.8 40.8 2.6 3.8 2.8 126.9 136.3 0.00 0.0000040 43.3
2021-01-22 01:20:00 40.8 100.0 40.8 40.8 40.8 1.5 3.8 2.1 114.2 163.7 0.00 0.0000101 43.3
2021-01-22 01:25:00 41.3 100.0 41.3 41.3 41.3 2.2 3.1 2.0 125.6 122.3 0.00 0.0000121 43.3
2021-01-22 01:30:00 41.6 100.0 41.6 40.0 41.6 3.1 3.3 2.0 139.0 120.4 0.00 0.0000101 43.3
2021-01-22 01:35:00 41.6 100.0 41.6 41.6 41.6 2.1 3.0 1.7 148.3 138.6 0.00 0.0000101 43.2
2021-01-22 01:40:00 41.8 100.0 41.8 41.8 41.8 0.0 3.8 2.0 139.8 135.7 0.00 0.0000101 43.2
2021-01-22 01:45:00 42.1 100.0 42.1 39.6 42.1 4.2 4.9 3.0 126.6 140.1 0.00 0.0000061 43.2
2021-01-22 01:50:00 42.4 100.0 42.4 42.4 42.4 2.6 5.8 3.2 131.1 138.5 0.00 0.0000020 43.2
2021-01-22 01:55:00 42.4 100.0 42.4 42.4 42.4 1.5 5.1 2.6 129.5 145.6 0.00 0.0000000 43.2
2021-01-22 02:00:00 42.8 100.0 42.8 40.0 42.8 4.6 5.3 3.2 144.6 143.4 0.00 0.0000000 43.2
2021-01-22 02:05:00 42.8 100.0 42.8 42.8 42.8 1.0 6.0 2.5 138.1 142.3 0.01 0.0000000 43.1
2021-01-22 02:10:00 42.7 100.0 42.7 42.7 42.7 3.0 3.7 2.1 124.0 142.0 0.00 0.0000000 43.1
2021-01-22 02:15:00 42.8 100.0 42.8 42.8 42.8 2.6 4.0 2.7 130.6 145.4 0.00 0.0000000 43.1
2021-01-22 02:20:00 42.7 100.0 42.7 42.7 42.7 1.9 2.8 1.9 105.3 132.7 0.00 0.0000000 43.1
2021-01-22 02:25:00 42.5 100.0 42.5 42.5 42.5 2.1 3.3 1.7 125.4 130.4 0.00 0.0000000 43.1
2021-01-22 02:30:00 42.6 99.9 42.6 42.6 42.6 1.5 3.3 2.1 122.0 142.9 0.00 0.0000020 43.1
2021-01-22 02:35:00 42.8 100.0 42.8 42.8 42.8 2.2 3.5 2.1 140.1 146.2 0.00 0.0000000 43.1
2021-01-22 02:40:00 42.6 99.9 42.6 42.6 42.6 3.0 3.8 2.4 146.7 156.3 0.00 0.0000000 43.1
2021-01-22 02:45:00 42.8 100.0 42.8 41.3 42.8 3.1 4.0 2.4 153.2 144.7 0.00 0.0000040 43.1
2021-01-22 02:50:00 42.9 100.0 42.9 42.9 42.9 3.0 3.0 1.7 159.9 158.4 0.00 0.0000000 43.1
2021-01-22 02:55:00 42.8 100.0 42.8 42.8 42.8 0.0 3.1 1.9 192.8 160.6 0.00 0.0000000 43.1
2021-01-22 03:00:00 42.7 99.9 42.6 42.7 42.7 1.2 3.1 1.2 184.7 143.6 0.00 0.0000000 43.1
2021-01-22 03:05:00 42.8 100.0 42.8 42.8 42.8 2.6 3.3 1.7 161.8 143.7 0.00 0.0000000 43.1
2021-01-22 03:10:00 42.8 100.0 42.8 42.8 42.8 0.0 2.8 1.5 106.3 134.2 0.00 0.0000000 43.2
2021-01-22 03:15:00 42.9 100.0 42.9 42.9 42.9 0.0 0.8 0.1 111.9 152.5 0.00 0.0000020 43.2
2021-01-22 03:20:00 42.2 99.9 42.1 42.2 42.2 1.2 3.1 1.1 130.2 108.2 0.00 0.0000000 43.2
2021-01-22 03:25:00 42.0 100.0 42.0 42.0 42.0 0.0 1.5 0.5 144.5 128.3 0.00 0.0000000 43.2
2021-01-22 03:30:00 42.0 100.0 42.0 42.0 42.0 0.0 1.5 0.5 141.2 139.1 0.00 0.0000000 43.2
2021-01-22 03:35:00 42.0 99.9 42.0 42.0 42.0 0.0 1.0 0.1 180.2 171.6 0.00 0.0000000 43.2
2021-01-22 03:40:00 42.2 100.0 42.2 42.2 42.2 1.7 3.7 1.0 102.9 180.9 0.00 0.0000000 43.2
2021-01-22 03:45:00 42.0 99.9 42.0 42.0 42.0 0.0 2.1 1.0 113.3 107.4 0.00 0.0000000 43.2
2021-01-22 03:50:00 42.3 100.0 42.3 42.3 42.3 0.0 1.2 0.4 148.5 155.3 0.00 0.0000000 43.2
2021-01-22 03:55:00 42.2 100.0 42.2 42.2 42.2 2.1 3.3 1.2 197.9 204.9 0.00 0.0000000 43.2
2021-01-22 04:00:00 41.9 99.9 41.8 41.9 41.9 2.2 2.8 2.1 172.8 198.8 0.00 0.0000000 43.2
2021-01-22 04:05:00 41.9 100.0 41.9 41.9 41.9 0.0 2.8 1.5 188.7 187.5 0.00 0.0000000 43.2
2021-01-22 04:10:00 41.7 99.9 41.7 41.7 41.7 0.0 0.8 0.0 143.4 155.9 0.00 0.0000020 43.2
2021-01-22 04:15:00 41.7 100.0 41.7 41.7 41.7 1.3 2.2 0.5 154.3 188.9 0.00 0.0000020 43.2
2021-01-22 04:20:00 41.3 99.9 41.3 41.3 41.3 0.0 1.5 0.2 133.8 144.0 0.00 0.0000061 43.2
2021-01-22 04:25:00 41.2 100.0 41.3 41.2 41.2 0.0 2.1 0.5 166.3 149.2 0.00 0.0000020 43.2
2021-01-22 04:30:00 41.3 100.0 41.3 41.3 41.3 1.2 1.3 0.3 53.9 146.5 0.00 0.0000020 43.2
2021-01-22 04:35:00 41.0 100.0 41.0 41.0 41.0 0.0 1.2 0.2 225.2 124.1 0.00 0.0000000 43.2
2021-01-22 04:40:00 40.9 99.9 40.9 40.9 40.9 1.7 1.7 0.2 273.5 274.6 0.00 0.0000000 43.2
2021-01-22 04:45:00 40.8 99.9 40.8 40.8 40.8 0.0 1.7 0.2 84.1 282.0 0.00 0.0000000 43.2
2021-01-22 04:50:00 40.9 100.0 40.9 40.9 40.9 1.7 2.6 1.4 220.8 192.4 0.00 0.0000000 43.2
2021-01-22 04:55:00 41.1 100.0 41.1 41.1 41.1 0.0 2.4 1.4 193.2 191.4 0.00 0.0000020 43.2
2021-01-22 05:00:00 40.8 99.9 40.7 40.8 40.8 0.0 0.0 0.0 31.5 0.0 0.00 0.0000061 43.2
2021-01-22 05:05:00 41.2 100.0 41.2 41.2 41.2 2.1 2.2 1.0 91.7 86.0 0.00 0.0000142 43.2
2021-01-22 05:10:00 40.9 99.9 40.9 40.9 40.9 0.0 2.4 0.8 81.9 81.3 0.00 0.0000081 43.2
2021-01-22 05:15:00 41.2 100.0 41.2 41.2 41.2 0.0 0.0 0.0 112.9 0.0 0.00 0.0000020 43.3
2021-01-22 05:20:00 41.2 100.0 41.2 41.2 41.2 1.5 3.7 1.9 156.2 127.2 0.00 0.0000040 43.3
2021-01-22 05:25:00 41.3 100.0 41.3 41.3 41.3 1.3 3.3 1.8 168.6 163.1 0.00 0.0000101 43.3
2021-01-22 05:30:00 41.3 100.0 41.3 41.3 41.3 1.3 1.9 0.8 113.3 128.5 0.00 0.0000000 43.3
2021-01-22 05:35:00 41.1 100.0 41.1 41.1 41.1 1.7 2.2 1.1 142.8 133.3 0.00 0.0000000 43.3
2021-01-22 05:40:00 41.0 100.0 41.0 41.0 41.0 2.1 2.4 1.2 121.0 124.6 0.00 0.0000222 43.3
2021-01-22 05:45:00 40.7 100.0 40.7 40.7 40.7 3.0 4.4 2.5 108.0 123.7 0.00 0.0000222 43.3
2021-01-22 05:50:00 40.6 100.0 40.6 40.6 40.6 1.2 2.8 1.5 169.0 150.2 0.00 0.0000283 43.3
2021-01-22 05:55:00 40.5 100.0 40.5 40.5 40.5 2.1 3.5 1.6 194.9 151.2 0.00 0.0000465 43.3
2021-01-22 06:00:00 40.3 99.9 40.3 40.3 40.3 2.2 4.0 2.4 213.9 194.8 0.00 0.0000526 43.3
2021-01-22 06:05:00 40.2 100.0 40.2 40.2 40.2 0.0 1.7 0.5 278.3 193.0 0.00 0.0000607 43.3
2021-01-22 06:10:00 40.4 100.0 40.4 40.4 40.4 0.0 0.0 0.0 240.5 0.0 0.00 0.0000607 43.3
2021-01-22 06:15:00 40.4 100.0 40.4 40.4 40.4 2.6 2.6 0.8 217.2 242.0 0.00 0.0000607 43.3
2021-01-22 06:20:00 40.1 100.0 40.1 40.1 40.1 1.7 2.8 2.0 223.4 236.6 0.00 0.0000647 43.3
2021-01-22 06:25:00 40.0 100.0 40.0 40.0 40.0 0.0 2.2 1.0 224.9 236.0 0.00 0.0000708 43.3
2021-01-22 06:30:00 39.8 99.9 39.8 39.8 39.8 1.5 1.5 0.2 346.1 353.4 0.00 0.0000870 43.3
2021-01-22 06:35:00 39.5 99.9 39.5 39.5 39.5 0.0 2.1 1.0 44.8 27.4 0.00 0.0001274 43.3
2021-01-22 06:40:00 39.7 99.9 39.6 39.7 39.7 1.5 2.1 1.0 221.3 215.3 0.00 0.0001395 43.3

Data is courtesy of the NM Climate Center. DO NOT USE IN LEGAL PROCEEDINGS.